Time;durP1;ratioP1;P1;durP2;ratioP2;P2;SDS_P1;SDS_P2;PMS_P1;PMS_P2;Temp;Humidity;BMP_temperature;BMP_pressure;BME280_temperature;BME280_humidity;BME280_pressure;Samples;Min_cycle;Max_cycle;Signal;HPM_P1;HPM_P2
2022/07/18 00:01:59;;;;;;;2.63;2.00;;;30.00;99.90;;;;;;4973731;28;20448;-59
2022/07/18 00:04:26;;;;;;;2.40;1.88;;;30.00;99.90;;;;;;4973981;28;20106;-58
2022/07/18 00:06:53;;;;;;;2.50;1.92;;;30.00;99.90;;;;;;4973994;28;20026;-60
2022/07/18 00:09:19;;;;;;;4.90;2.00;;;30.00;99.90;;;;;;4973691;28;20469;-58
2022/07/18 00:11:45;;;;;;;2.65;2.00;;;30.00;99.90;;;;;;4972840;28;20040;-59
2022/07/18 00:14:11;;;;;;;5.30;2.28;;;30.00;99.90;;;;;;4973554;28;20098;-58
2022/07/18 00:16:37;;;;;;;4.28;2.65;;;30.00;99.90;;;;;;4973689;28;20366;-60
2022/07/18 00:19:04;;;;;;;8.00;3.00;;;30.00;99.90;;;;;;4973589;28;20053;-60
2022/07/18 00:21:30;;;;;;;5.40;2.38;;;29.90;99.90;;;;;;4973595;28;20069;-59
2022/07/18 00:23:55;;;;;;;5.80;2.55;;;30.00;99.90;;;;;;4956442;28;20023;-60
2022/07/18 00:26:21;;;;;;;7.38;2.20;;;29.90;99.90;;;;;;4973494;28;20485;-60
2022/07/18 00:28:47;;;;;;;4.18;2.33;;;29.90;99.90;;;;;;4978230;28;20031;-59
2022/07/18 00:31:13;;;;;;;3.88;2.40;;;29.90;99.90;;;;;;4982147;28;20046;-58
2022/07/18 00:33:39;;;;;;;4.60;2.60;;;29.80;99.90;;;;;;4987044;28;20389;-60
2022/07/18 00:36:05;;;;;;;3.65;2.25;;;29.80;99.90;;;;;;4973475;28;20018;-58
2022/07/18 00:38:31;;;;;;;2.97;2.38;;;29.70;99.90;;;;;;4973361;28;20039;-60
2022/07/18 00:40:56;;;;;;;4.57;2.45;;;29.70;99.90;;;;;;4973211;28;20562;-59
2022/07/18 00:43:22;;;;;;;4.55;2.55;;;29.70;99.90;;;;;;4973197;28;20109;-59
2022/07/18 00:45:49;;;;;;;2.92;2.55;;;29.70;99.90;;;;;;4972845;28;20033;-62
2022/07/18 00:48:15;;;;;;;2.78;2.40;;;29.70;99.90;;;;;;4973143;28;20030;-57
2022/07/18 00:50:43;;;;;;;3.60;2.53;;;29.70;99.90;;;;;;4972998;28;20034;-62
2022/07/18 00:53:10;;;;;;;;;;;29.70;99.90;;;;;;4971427;28;20484;-68
2022/07/18 00:55:40;;;;;;;;;;;29.70;99.90;;;;;;4973426;28;19913;-61
2022/07/18 00:58:08;;;;;;;5.97;3.83;;;29.60;99.90;;;;;;4972773;28;19945;-60
2022/07/18 01:03:18;;;;;;;5.53;3.05;;;29.60;99.90;;;;;;4973205;28;20037;-64
2022/07/18 01:05:44;;;;;;;3.28;2.40;;;29.60;99.90;;;;;;4955469;28;20015;-64
2022/07/18 01:08:09;;;;;;;5.35;2.60;;;29.50;99.90;;;;;;4972710;28;20137;-64
2022/07/18 01:10:35;;;;;;;5.40;2.60;;;29.50;99.90;;;;;;4973093;28;20535;-64
2022/07/18 01:13:01;;;;;;;5.03;2.92;;;29.50;99.90;;;;;;4973196;28;20050;-65
2022/07/18 01:15:27;;;;;;;2.70;2.15;;;29.50;99.90;;;;;;4973283;28;20050;-64
2022/07/18 01:17:53;;;;;;;5.07;2.22;;;29.40;99.90;;;;;;4972986;28;20442;-61
2022/07/18 01:20:19;;;;;;;4.22;2.63;;;29.40;99.90;;;;;;4972708;28;20081;-60
2022/07/18 01:22:44;;;;;;;5.55;2.65;;;29.40;99.90;;;;;;4972441;28;20027;-60
2022/07/18 01:25:11;;;;;;;3.80;2.47;;;29.40;99.90;;;;;;4972502;28;20050;-59
2022/07/18 01:27:37;;;;;;;4.43;2.33;;;29.40;99.90;;;;;;4972640;28;20034;-59
2022/07/18 01:30:04;;;;;;;4.72;2.13;;;29.40;99.90;;;;;;4986336;28;20031;-61
2022/07/18 01:32:30;;;;;;;;;;;29.40;99.90;;;;;;4972940;28;20027;-61
2022/07/18 01:34:56;;;;;;;3.97;2.40;;;29.40;99.90;;;;;;4964344;28;19973;-60
2022/07/18 01:37:21;;;;;;;2.95;2.60;;;29.40;99.90;;;;;;4972553;28;20101;-60
2022/07/18 01:39:48;;;;;;;5.82;2.40;;;29.40;99.90;;;;;;4963435;28;20037;-59
2022/07/18 01:42:14;;;;;;;7.18;2.95;;;29.50;99.90;;;;;;4977511;28;20065;-60
2022/07/18 01:44:41;;;;;;;4.53;2.83;;;29.50;99.90;;;;;;4972232;28;20113;-63
2022/07/18 01:47:09;;;;;;;5.53;3.30;;;29.50;99.90;;;;;;4966116;28;20754;-61
2022/07/18 01:49:36;;;;;;;4.18;2.60;;;29.50;99.90;;;;;;4976727;28;20035;-62
2022/07/18 01:52:03;;;;;;;3.63;2.87;;;29.50;99.90;;;;;;4972214;28;20113;-60
2022/07/18 01:54:32;;;;;;;;;;;29.40;99.90;;;;;;4972599;28;20037;-64
2022/07/18 01:56:59;;;;;;;2.33;2.10;;;29.40;99.90;;;;;;4972020;28;19906;-65
2022/07/18 01:59:25;;;;;;;4.72;2.55;;;29.30;99.90;;;;;;4972789;28;20043;-64
2022/07/18 02:01:51;;;;;;;3.42;2.25;;;29.20;99.90;;;;;;4971910;28;20066;-63
2022/07/18 02:04:17;;;;;;;4.15;2.28;;;29.20;99.90;;;;;;4972219;28;20029;-63
2022/07/18 02:06:43;;;;;;;2.65;2.25;;;29.10;99.90;;;;;;4971986;28;20023;-64
2022/07/18 02:09:11;;;;;;;2.83;2.30;;;29.10;99.90;;;;;;4954626;28;20023;-63
2022/07/18 02:11:37;;;;;;;3.00;2.47;;;29.00;99.90;;;;;;4972176;28;20026;-66
2022/07/18 02:14:04;;;;;;;3.17;2.35;;;29.00;99.90;;;;;;4964115;28;20030;-68
2022/07/18 02:16:31;;;;;;;4.15;2.20;;;29.00;99.90;;;;;;4972147;28;20035;-61
2022/07/18 02:18:57;;;;;;;3.45;2.30;;;28.90;99.90;;;;;;4954482;28;20441;-63
2022/07/18 02:21:24;;;;;;;3.85;1.95;;;28.90;99.90;;;;;;4954573;28;20121;-66
2022/07/18 02:23:50;;;;;;;3.78;2.28;;;28.90;99.90;;;;;;4971840;28;20391;-59
2022/07/18 02:26:17;;;;;;;3.30;2.85;;;28.90;99.90;;;;;;4972018;28;20019;-62
2022/07/18 02:28:43;;;;;;;2.60;1.97;;;28.80;99.90;;;;;;4976228;28;20034;-57
2022/07/18 02:31:09;;;;;;;3.20;1.98;;;28.80;99.90;;;;;;4981185;28;20026;-59
2022/07/18 02:33:35;;;;;;;6.32;2.30;;;28.80;99.90;;;;;;4971678;28;20064;-59
2022/07/18 02:36:00;;;;;;;6.53;2.35;;;28.70;99.90;;;;;;4963709;28;20045;-59
2022/07/18 02:38:26;;;;;;;3.28;2.20;;;28.70;99.90;;;;;;4983838;28;20086;-58
2022/07/18 02:40:52;;;;;;;2.80;2.33;;;28.70;99.90;;;;;;4975319;28;20501;-58
2022/07/18 02:43:18;;;;;;;3.97;2.20;;;28.70;99.90;;;;;;4975347;28;20045;-59
2022/07/18 02:45:44;;;;;;;2.83;2.05;;;28.70;99.90;;;;;;4975262;28;20469;-59
2022/07/18 02:48:10;;;;;;;3.35;2.35;;;28.70;99.90;;;;;;4975484;28;20054;-58
2022/07/18 02:50:35;;;;;;;2.60;2.08;;;28.60;99.90;;;;;;4975443;28;20389;-58
2022/07/18 02:53:01;;;;;;;4.63;2.40;;;28.60;99.90;;;;;;4975414;28;20023;-58
2022/07/18 02:55:27;;;;;;;3.53;1.98;;;28.70;99.90;;;;;;4975206;28;20381;-60
2022/07/18 02:57:53;;;;;;;3.75;1.70;;;28.60;99.90;;;;;;4975048;28;20038;-59
2022/07/18 03:00:19;;;;;;;2.65;1.98;;;28.60;99.90;;;;;;4975492;28;20050;-63
2022/07/18 03:02:45;;;;;;;3.08;2.58;;;28.60;99.90;;;;;;4975048;28;20027;-61
2022/07/18 03:05:12;;;;;;;3.95;1.95;;;28.60;99.90;;;;;;4975221;28;20050;-61
2022/07/18 03:07:38;;;;;;;2.55;2.08;;;28.60;99.90;;;;;;4975303;28;20428;-61
2022/07/18 03:10:05;;;;;;;7.25;2.42;;;28.60;99.90;;;;;;4974845;28;20031;-63
2022/07/18 03:12:32;;;;;;;6.53;2.03;;;28.60;99.90;;;;;;4974737;28;20035;-62
2022/07/18 03:14:59;;;;;;;6.30;2.15;;;28.60;99.90;;;;;;4974763;28;20062;-61
2022/07/18 03:17:25;;;;;;;3.45;1.90;;;28.60;99.90;;;;;;4967444;28;20045;-61
2022/07/18 03:19:50;;;;;;;3.42;1.92;;;28.60;99.90;;;;;;4960864;28;20396;-61
2022/07/18 03:22:16;;;;;;;3.85;1.90;;;28.60;99.90;;;;;;4965361;28;20480;-59
2022/07/18 03:24:42;;;;;;;2.50;2.17;;;28.60;99.90;;;;;;4980325;28;20035;-60
2022/07/18 03:27:08;;;;;;;3.20;2.35;;;28.60;99.90;;;;;;4974439;28;20034;-63
2022/07/18 03:29:34;;;;;;;3.53;2.30;;;28.60;99.90;;;;;;4985812;28;20562;-62
2022/07/18 03:31:59;;;;;;;5.32;2.50;;;28.60;99.90;;;;;;4992797;28;20041;-64
2022/07/18 03:34:25;;;;;;;5.65;2.33;;;28.70;99.90;;;;;;4974535;28;20022;-66
2022/07/18 03:36:51;;;;;;;3.17;2.08;;;28.70;99.90;;;;;;4957194;28;20027;-67
2022/07/18 03:39:16;;;;;;;3.42;2.10;;;28.70;99.90;;;;;;4974263;28;20030;-66
2022/07/18 03:41:42;;;;;;;4.45;2.10;;;28.60;99.90;;;;;;4974627;28;20019;-65
2022/07/18 03:44:08;;;;;;;4.50;1.75;;;28.70;99.90;;;;;;4974352;28;20062;-66
2022/07/18 03:46:34;;;;;;;6.10;2.13;;;28.70;99.90;;;;;;4973798;28;20019;-65
2022/07/18 03:49:00;;;;;;;3.35;2.35;;;28.70;99.90;;;;;;4974336;28;20431;-65
2022/07/18 03:51:26;;;;;;;2.83;2.00;;;28.70;99.90;;;;;;4974349;28;20484;-64
2022/07/18 03:53:52;;;;;;;3.35;1.92;;;28.60;99.90;;;;;;4975564;28;20034;-65
2022/07/18 03:56:18;;;;;;;3.40;2.00;;;28.60;99.90;;;;;;4982448;28;20030;-59
2022/07/18 03:58:44;;;;;;;3.63;2.60;;;28.50;99.90;;;;;;4974076;28;20038;-58
2022/07/18 04:01:11;;;;;;;3.35;2.03;;;28.50;99.90;;;;;;5020924;23;20138;-50
2022/07/18 04:03:37;;;;;;;4.53;2.30;;;28.50;99.90;;;;;;4993508;28;20089;-50
2022/07/18 04:06:03;;;;;;;3.38;2.17;;;28.50;99.90;;;;;;4993199;28;20414;-50
2022/07/18 04:08:28;;;;;;;2.97;2.00;;;28.50;99.90;;;;;;4976101;28;20534;-49
2022/07/18 04:10:54;;;;;;;2.40;2.20;;;28.50;99.90;;;;;;4993307;28;20042;-49
2022/07/18 04:13:20;;;;;;;4.03;1.98;;;28.50;99.90;;;;;;4993102;28;20022;-50
2022/07/18 04:15:46;;;;;;;5.68;2.53;;;28.50;99.90;;;;;;4993356;28;20023;-50
2022/07/18 04:18:11;;;;;;;2.15;1.85;;;28.50;99.90;;;;;;4992976;28;20435;-51
2022/07/18 04:20:38;;;;;;;4.45;2.17;;;28.60;99.90;;;;;;4979506;28;20062;-51
2022/07/18 04:23:07;;;;;;;3.17;2.38;;;28.60;99.90;;;;;;4992975;28;20101;-51
2022/07/18 04:25:40;;;;;;;3.55;2.30;;;28.60;99.90;;;;;;4992793;28;20065;-51
2022/07/18 04:28:08;;;;;;;3.15;2.30;;;28.60;99.90;;;;;;4992837;28;20029;-51
2022/07/18 04:30:35;;;;;;;3.65;3.35;;;28.70;99.90;;;;;;4992749;28;20477;-51
2022/07/18 04:33:03;;;;;;;6.15;3.40;;;28.60;99.90;;;;;;4992976;28;20026;-51
2022/07/18 04:35:29;;;;;;;4.18;2.53;;;28.60;99.90;;;;;;4992615;28;20027;-51
2022/07/18 04:37:55;;;;;;;4.60;3.75;;;28.70;99.90;;;;;;4992594;28;20030;-51
2022/07/18 04:40:21;;;;;;;4.07;2.75;;;28.70;99.90;;;;;;4992642;28;20495;-51
2022/07/18 04:42:47;;;;;;;5.85;2.53;;;28.70;99.90;;;;;;4975309;28;20041;-51
2022/07/18 04:45:13;;;;;;;4.32;2.60;;;28.70;99.90;;;;;;4992735;28;20027;-51
2022/07/18 04:47:38;;;;;;;5.80;2.60;;;28.70;99.90;;;;;;4992434;28;20037;-50
2022/07/18 04:50:05;;;;;;;6.20;2.50;;;28.70;99.90;;;;;;4992585;28;20379;-50
2022/07/18 04:52:42;;;;;;;3.67;2.65;;;28.70;99.90;;;;;;4992258;28;20081;-51
2022/07/18 04:55:09;;;;;;;6.78;3.45;;;28.70;99.90;;;;;;4992296;28;20439;-51
2022/07/18 04:57:36;;;;;;;2.97;2.67;;;28.70;99.90;;;;;;4991795;28;20038;-51
2022/07/18 05:00:11;;;;;;;3.13;2.38;;;28.70;99.90;;;;;;4992135;28;20182;-50
2022/07/18 05:02:44;;;;;;;4.50;2.63;;;28.70;99.90;;;;;;4992387;28;20032;-52
2022/07/18 05:05:12;;;;;;;5.45;2.30;;;28.60;99.90;;;;;;4992515;28;20037;-51
2022/07/18 05:07:39;;;;;;;2.88;2.60;;;28.60;99.90;;;;;;4992245;28;20022;-50
2022/07/18 05:10:09;;;;;;;10.57;3.45;;;28.60;99.90;;;;;;4992176;28;20382;-50
2022/07/18 05:12:36;;;;;;;7.75;2.90;;;28.60;99.90;;;;;;4992037;28;20546;-50
2022/07/18 05:15:05;;;;;;;8.75;3.28;;;28.50;99.90;;;;;;4992051;28;20388;-51
2022/07/18 05:17:31;;;;;;;15.32;3.78;;;28.50;99.90;;;;;;4991884;28;20050;-51
2022/07/18 05:19:57;;;;;;;7.80;2.95;;;28.50;99.90;;;;;;4991955;28;20105;-50
2022/07/18 05:22:23;;;;;;;10.35;2.60;;;28.50;99.90;;;;;;4991955;28;20030;-50
2022/07/18 05:24:49;;;;;;;4.50;2.60;;;28.50;99.90;;;;;;4992004;28;20080;-51
2022/07/18 05:27:15;;;;;;;5.20;2.50;;;28.50;99.90;;;;;;4991884;28;20018;-50
2022/07/18 05:29:41;;;;;;;5.30;2.10;;;28.50;99.90;;;;;;4992150;28;20105;-50
2022/07/18 05:32:07;;;;;;;6.43;2.80;;;28.50;99.90;;;;;;4991785;28;20064;-51
2022/07/18 05:34:33;;;;;;;7.03;2.75;;;28.40;99.90;;;;;;4991838;28;20413;-51
2022/07/18 05:36:59;;;;;;;13.75;2.70;;;28.40;99.90;;;;;;4991934;28;20407;-50
2022/07/18 05:39:25;;;;;;;8.43;2.83;;;28.40;99.90;;;;;;4991615;28;20049;-50
2022/07/18 05:41:52;;;;;;;8.57;2.72;;;28.40;99.90;;;;;;4992067;28;20059;-51
2022/07/18 05:44:19;;;;;;;4.55;2.38;;;28.40;99.90;;;;;;4974360;28;20088;-50
2022/07/18 05:46:46;;;;;;;5.57;2.38;;;28.40;99.90;;;;;;4991528;28;20480;-51
2022/07/18 05:49:13;;;;;;;4.32;2.42;;;28.40;99.90;;;;;;4991470;28;20034;-51
2022/07/18 05:51:38;;;;;;;7.45;2.85;;;28.40;99.90;;;;;;4991380;28;20134;-51
2022/07/18 05:54:04;;;;;;;5.68;3.20;;;28.50;99.90;;;;;;4991407;28;20117;-50
2022/07/18 05:56:30;;;;;;;8.90;4.35;;;28.50;99.90;;;;;;4991413;28;20076;-51
2022/07/18 05:58:56;;;;;;;8.93;2.95;;;28.40;99.90;;;;;;4991277;28;20034;-50
2022/07/18 06:01:22;;;;;;;10.55;3.35;;;28.50;99.90;;;;;;4991710;28;20093;-51
2022/07/18 06:03:48;;;;;;;8.40;4.22;;;28.50;99.90;;;;;;4991413;28;20092;-51
2022/07/18 06:06:14;;;;;;;5.60;3.17;;;28.60;99.90;;;;;;4991302;28;20094;-50
2022/07/18 06:08:40;;;;;;;7.30;3.50;;;28.60;99.90;;;;;;4991709;28;20380;-51
2022/07/18 06:11:07;;;;;;;7.25;2.70;;;28.60;99.90;;;;;;4995359;28;20607;-50
2022/07/18 06:13:37;;;;;;;7.20;2.90;;;28.60;99.90;;;;;;4977629;28;20042;-51
2022/07/18 06:16:04;;;;;;;6.53;2.67;;;28.70;99.90;;;;;;4995260;28;20026;-51
2022/07/18 06:18:30;;;;;;;5.15;2.90;;;28.70;99.90;;;;;;4994926;28;20052;-50
2022/07/18 06:20:56;;;;;;;9.27;3.42;;;28.70;99.90;;;;;;4995029;28;20140;-52
2022/07/18 06:23:22;;;;;;;5.82;2.83;;;28.70;99.90;;;;;;4995144;28;20030;-51
2022/07/18 06:25:47;;;;;;;16.00;3.95;;;28.70;99.90;;;;;;4994875;28;20062;-51
2022/07/18 06:28:13;;;;;;;11.73;3.90;;;28.80;99.90;;;;;;4995164;28;20121;-50
2022/07/18 06:30:39;;;;;;;9.95;2.80;;;28.80;99.90;;;;;;4994795;28;20018;-49
2022/07/18 06:33:07;;;;;;;7.97;3.13;;;28.90;99.90;;;;;;4994995;28;20030;-51
2022/07/18 06:35:33;;;;;;;37.45;7.03;;;28.90;99.90;;;;;;4994738;28;20038;-51
2022/07/18 06:37:59;;;;;;;10.15;2.83;;;28.90;99.90;;;;;;4994718;28;20173;-50
2022/07/18 06:40:25;;;;;;;12.48;3.08;;;28.90;99.90;;;;;;4974281;28;20499;-50
2022/07/18 06:42:52;;;;;;;8.68;3.08;;;28.90;99.90;;;;;;4991253;28;20092;-50
2022/07/18 06:45:18;;;;;;;7.97;3.42;;;28.90;99.90;;;;;;4994743;28;20080;-51
2022/07/18 06:47:44;;;;;;;15.00;5.60;;;29.00;99.90;;;;;;4994452;28;20030;-51
2022/07/18 06:50:12;;;;;;;7.82;2.83;;;29.00;99.90;;;;;;4994437;28;20018;-51
2022/07/18 06:52:43;;;;;;;7.03;3.13;;;29.00;99.90;;;;;;4994541;28;20031;-51
2022/07/18 06:55:10;;;;;;;7.22;2.75;;;29.00;99.90;;;;;;4960824;28;20027;-51
2022/07/18 06:57:36;;;;;;;11.55;5.22;;;29.00;99.90;;;;;;4976803;28;20092;-51
2022/07/18 07:00:03;;;;;;;6.43;4.25;;;29.10;99.90;;;;;;4976657;28;20050;-51
2022/07/18 07:02:29;;;;;;;;;;;29.10;99.90;;;;;;4994524;28;20494;-51
2022/07/18 07:04:55;;;;;;;11.43;2.95;;;29.10;99.90;;;;;;4994552;28;19905;-51
2022/07/18 07:07:21;;;;;;;4.13;2.45;;;29.10;99.90;;;;;;4994332;28;20034;-51
2022/07/18 07:09:46;;;;;;;9.52;2.65;;;29.10;99.90;;;;;;4994149;28;20388;-51
2022/07/18 07:12:12;;;;;;;4.03;1.88;;;29.20;99.90;;;;;;4994170;28;20034;-51
2022/07/18 07:14:38;;;;;;;3.47;2.10;;;29.20;99.90;;;;;;4993869;28;20015;-51
2022/07/18 07:17:04;;;;;;;11.15;3.15;;;29.20;99.90;;;;;;4994128;28;20022;-50
2022/07/18 07:19:30;;;;;;;31.67;5.97;;;29.20;99.90;;;;;;4993984;28;20514;-51
2022/07/18 07:21:56;;;;;;;3.33;2.28;;;29.20;99.90;;;;;;4993346;28;20050;-51
2022/07/18 07:24:22;;;;;;;2.20;1.70;;;29.30;99.90;;;;;;4993975;28;20049;-51
2022/07/18 07:26:48;;;;;;;4.28;2.28;;;29.30;99.90;;;;;;4993926;28;20026;-50
2022/07/18 07:29:14;;;;;;;13.48;3.50;;;29.30;99.90;;;;;;4993724;28;20065;-50
2022/07/18 07:31:42;;;;;;;8.55;3.53;;;29.40;99.90;;;;;;4993948;28;20018;-50
2022/07/18 07:34:08;;;;;;;11.70;3.65;;;29.40;99.90;;;;;;4993545;28;20093;-51
2022/07/18 07:36:34;;;;;;;6.72;2.38;;;29.50;99.90;;;;;;4993608;28;20037;-50
2022/07/18 07:39:00;;;;;;;2.65;2.00;;;29.50;99.90;;;;;;4993561;28;20038;-50
2022/07/18 07:41:26;;;;;;;4.65;2.42;;;29.50;99.90;;;;;;4993768;28;20018;-51
2022/07/18 07:43:52;;;;;;;4.25;2.28;;;29.50;99.90;;;;;;4976209;28;20470;-51
2022/07/18 07:46:17;;;;;;;2.97;1.90;;;29.50;99.90;;;;;;4976015;28;20029;-51
2022/07/18 07:48:43;;;;;;;9.25;3.22;;;29.60;99.90;;;;;;4993550;28;20446;-51
2022/07/18 07:51:09;;;;;;;4.90;2.60;;;29.60;99.90;;;;;;4993327;28;20026;-51
2022/07/18 07:53:35;;;;;;;7.18;3.10;;;29.70;99.90;;;;;;4993038;28;20031;-51
2022/07/18 07:56:01;;;;;;;5.75;3.72;;;29.70;99.90;;;;;;4993231;28;20076;-51
2022/07/18 07:58:27;;;;;;;3.10;2.60;;;29.70;99.90;;;;;;4993119;28;20046;-51
2022/07/18 08:00:53;;;;;;;5.93;2.42;;;29.80;99.90;;;;;;4992809;28;20492;-51
2022/07/18 08:03:18;;;;;;;8.35;2.08;;;29.80;99.90;;;;;;4993023;28;20037;-51
2022/07/18 08:05:49;;;;;;;6.72;2.58;;;29.90;99.90;;;;;;4992837;28;20506;-51
2022/07/18 08:08:15;;;;;;;2.67;2.03;;;29.90;99.90;;;;;;4993026;28;20034;-51
2022/07/18 08:10:41;;;;;;;5.85;2.13;;;29.90;99.90;;;;;;4992895;28;20062;-51
2022/07/18 08:13:07;;;;;;;2.22;1.85;;;30.00;99.90;;;;;;4992917;28;20058;-51
2022/07/18 08:15:33;;;;;;;4.70;2.10;;;30.00;99.90;;;;;;4992679;28;20022;-51
2022/07/18 08:17:59;;;;;;;3.10;2.00;;;30.10;99.90;;;;;;4992888;28;20089;-51
2022/07/18 08:20:25;;;;;;;5.93;2.00;;;30.10;99.90;;;;;;4992854;28;20023;-52
2022/07/18 08:23:05;;;;;;;5.88;3.95;;;30.10;99.90;;;;;;4992762;28;20018;-52
2022/07/18 08:25:33;;;;;;;2.38;2.15;;;30.20;99.90;;;;;;4992890;28;20472;-51
2022/07/18 08:28:00;;;;;;;3.90;2.25;;;30.10;99.90;;;;;;4992809;28;20035;-51
2022/07/18 08:30:26;;;;;;;2.67;2.05;;;30.10;99.90;;;;;;4992354;28;20499;-51
2022/07/18 08:32:52;;;;;;;3.27;2.03;;;30.20;99.90;;;;;;4991546;28;20069;-51
2022/07/18 08:35:18;;;;;;;3.35;2.17;;;30.20;99.90;;;;;;4992361;28;20025;-51
2022/07/18 08:37:44;;;;;;;3.30;2.10;;;30.20;99.90;;;;;;4992254;28;20026;-51
2022/07/18 08:40:11;;;;;;;4.75;2.15;;;30.20;99.90;;;;;;4992366;28;20129;-50
2022/07/18 08:42:37;;;;;;;2.90;1.90;;;30.20;99.90;;;;;;4992467;28;20555;-51
2022/07/18 08:45:04;;;;;;;6.55;2.55;;;30.30;99.90;;;;;;4992541;28;20379;-51
2022/07/18 08:47:30;;;;;;;1.90;1.57;;;30.30;99.90;;;;;;4992218;28;20036;-51
2022/07/18 08:49:57;;;;;;;6.35;1.83;;;30.30;99.90;;;;;;4992272;28;20268;-51
2022/07/18 08:52:24;;;;;;;2.60;2.03;;;30.40;99.90;;;;;;4992261;28;20379;-51
2022/07/18 08:54:50;;;;;;;4.75;1.80;;;30.30;99.90;;;;;;4991999;28;20034;-51
2022/07/18 08:57:17;;;;;;;6.22;2.50;;;30.40;99.90;;;;;;4991861;28;20026;-51
2022/07/18 08:59:43;;;;;;;3.25;1.88;;;30.40;99.90;;;;;;4991971;28;20041;-51
2022/07/18 09:02:10;;;;;;;2.30;1.80;;;30.40;99.90;;;;;;4974782;28;20080;-51
2022/07/18 09:04:56;;;;;;;2.28;1.80;;;30.40;99.90;;;;;;5170904;27;20320;-64
2022/07/18 09:07:27;;;;;;;2.95;1.92;;;30.50;99.90;;;;;;5149733;27;20054;-63
2022/07/18 09:09:59;;;;;;;4.68;1.83;;;30.50;99.90;;;;;;5149678;27;20019;-62
2022/07/18 09:12:26;;;;;;;3.75;2.00;;;30.50;99.90;;;;;;5149881;27;20019;-65
2022/07/18 09:14:53;;;;;;;6.22;2.88;;;30.50;99.90;;;;;;5149458;27;20538;-62
2022/07/18 09:17:23;;;;;;;2.10;1.80;;;30.60;99.90;;;;;;5131088;27;20023;-65
2022/07/18 09:20:08;;;;;;;5.78;2.80;;;30.60;99.90;;;;;;5149570;27;20496;-62
2022/07/18 09:22:36;;;;;;;3.10;1.90;;;30.60;99.90;;;;;;5135354;27;20030;-62
2022/07/18 09:25:08;;;;;;;2.22;1.60;;;30.60;99.90;;;;;;5149910;27;20030;-65
2022/07/18 09:27:39;;;;;;;4.07;2.05;;;30.60;99.90;;;;;;5149551;27;20076;-63
2022/07/18 09:30:15;;;;;;;2.55;1.90;;;30.60;99.90;;;;;;5118815;28;20036;-66
2022/07/18 09:32:46;;;;;;;3.97;1.85;;;30.60;99.90;;;;;;5148663;27;20053;-64
2022/07/18 09:35:15;;;;;;;5.03;1.80;;;30.60;99.90;;;;;;5131342;27;20129;-65
2022/07/18 09:37:52;;;;;;;5.05;1.80;;;30.60;99.90;;;;;;5130855;27;20027;-63
2022/07/18 09:40:24;;;;;;;2.53;1.83;;;30.60;99.90;;;;;;5149334;27;20490;-62
2022/07/18 09:42:55;;;;;;;5.75;2.42;;;30.70;99.90;;;;;;5148938;27;20078;-62
2022/07/18 09:45:23;;;;;;;7.80;2.92;;;30.70;99.90;;;;;;5149082;27;20019;-62
2022/07/18 09:47:50;;;;;;;;;;;30.70;99.90;;;;;;5131127;27;20372;-61
2022/07/18 09:50:28;;;;;;;3.58;1.67;;;30.70;99.90;;;;;;5130140;27;19997;-64
2022/07/18 09:53:15;;;;;;;2.95;1.70;;;30.70;99.90;;;;;;5130457;27;20033;-64
2022/07/18 09:55:53;;;;;;;2.80;1.50;;;30.70;99.90;;;;;;5133086;27;20554;-62
2022/07/18 09:58:21;;;;;;;1.67;1.55;;;30.70;99.90;;;;;;5148849;27;20030;-63
2022/07/18 10:00:48;;;;;;;7.68;1.85;;;30.70;99.90;;;;;;5148569;27;20015;-63
2022/07/18 10:03:14;;;;;;;1.88;1.50;;;30.70;99.90;;;;;;5148510;27;20043;-63
2022/07/18 10:05:41;;;;;;;5.97;1.70;;;30.70;99.90;;;;;;5130511;27;20382;-61
2022/07/18 10:08:10;;;;;;;4.20;1.77;;;30.80;99.90;;;;;;5148639;27;20033;-60
2022/07/18 10:10:37;;;;;;;4.18;1.90;;;30.80;99.90;;;;;;5148790;27;20023;-62
2022/07/18 10:13:05;;;;;;;2.88;1.45;;;30.80;99.90;;;;;;5148473;27;20070;-64
2022/07/18 10:15:34;;;;;;;7.07;3.70;;;30.80;99.90;;;;;;5138033;27;20077;-60
2022/07/18 10:18:01;;;;;;;5.97;1.90;;;30.80;99.90;;;;;;5134679;27;20020;-63
2022/07/18 10:21:06;;;;;;;3.42;1.80;;;30.80;99.90;;;;;;5134493;27;20055;-61
2022/07/18 10:23:46;;;;;;;3.97;1.70;;;30.80;99.90;;;;;;5133588;27;20442;-62
2022/07/18 10:26:22;;;;;;;2.63;1.65;;;30.80;99.90;;;;;;5115854;27;20029;-62
2022/07/18 10:29:00;;;;;;;1.67;1.58;;;30.80;99.90;;;;;;5132775;27;20027;-63
2022/07/18 10:31:25;;;;;;;3.22;1.75;;;30.80;99.90;;;;;;5104640;27;20015;-61
2022/07/18 10:33:53;;;;;;;5.78;1.60;;;30.80;99.90;;;;;;5115761;27;20072;-62
2022/07/18 10:36:19;;;;;;;;;;;30.80;99.90;;;;;;5134724;27;20467;-60
2022/07/18 10:39:06;;;;;;;2.17;1.75;;;30.90;99.90;;;;;;5134166;27;19903;-62
2022/07/18 10:41:32;;;;;;;2.97;1.60;;;30.90;99.90;;;;;;5134090;27;20116;-63
2022/07/18 10:43:58;;;;;;;4.10;1.77;;;30.90;99.90;;;;;;5134056;27;20398;-60
2022/07/18 10:46:24;;;;;;;2.38;1.70;;;30.90;99.90;;;;;;5115492;27;20031;-65
2022/07/18 10:48:54;;;;;;;5.15;1.98;;;30.90;99.90;;;;;;5134184;27;20031;-62
2022/07/18 10:51:28;;;;;;;2.17;1.85;;;30.90;99.90;;;;;;5120867;27;20016;-64
2022/07/18 10:53:54;;;;;;;6.65;2.00;;;30.80;99.90;;;;;;5115291;27;20402;-65
2022/07/18 10:56:29;;;;;;;4.97;2.15;;;30.80;99.90;;;;;;5123904;27;20027;-63
2022/07/18 10:59:18;;;;;;;4.80;1.70;;;30.80;99.90;;;;;;5130749;27;20086;-65
2022/07/18 11:01:49;;;;;;;3.20;1.85;;;30.80;99.90;;;;;;5133795;27;20011;-63
2022/07/18 11:04:21;;;;;;;6.30;2.25;;;30.80;99.90;;;;;;5133338;27;20046;-60
2022/07/18 11:06:53;;;;;;;3.88;1.80;;;30.80;99.90;;;;;;5133694;27;20022;-61
2022/07/18 11:09:43;;;;;;;2.90;2.33;;;30.90;99.90;;;;;;5133423;27;20474;-61
2022/07/18 11:12:25;;;;;;;4.43;1.60;;;30.90;99.90;;;;;;5115123;27;20434;-65
2022/07/18 11:15:03;;;;;;;2.03;1.80;;;30.90;99.90;;;;;;5133195;27;20130;-65
2022/07/18 11:17:59;;;;;;;5.78;2.65;;;30.90;99.90;;;;;;5133503;27;20019;-61
2022/07/18 11:20:41;;;;;;;3.95;1.83;;;31.00;99.90;;;;;;5112352;27;20569;-60
2022/07/18 11:23:22;;;;;;;3.40;2.58;;;31.00;99.90;;;;;;5133213;27;20023;-59
2022/07/18 11:25:57;;;;;;;3.80;2.10;;;31.00;99.90;;;;;;5132661;27;20023;-62
2022/07/18 11:28:24;;;;;;;5.65;1.75;;;31.00;99.90;;;;;;5133069;27;20493;-60
2022/07/18 11:31:07;;;;;;;2.72;1.40;;;31.10;99.90;;;;;;5118786;27;20034;-64
2022/07/18 11:33:41;;;;;;;3.45;2.33;;;31.10;99.90;;;;;;5132967;27;20027;-62
2022/07/18 11:36:12;;;;;;;3.72;1.58;;;31.10;99.90;;;;;;5132873;27;20103;-59
2022/07/18 11:38:46;;;;;;;2.95;1.60;;;31.10;99.90;;;;;;5133105;27;20024;-61
2022/07/18 11:41:12;;;;;;;6.97;4.10;;;31.10;99.90;;;;;;5133023;27;20116;-64
2022/07/18 11:43:38;;;;;;;5.40;1.90;;;31.10;99.90;;;;;;5132928;27;20123;-61
2022/07/18 11:46:15;;;;;;;3.40;2.08;;;31.10;99.90;;;;;;5132940;27;20019;-61
2022/07/18 11:48:42;;;;;;;4.10;2.00;;;31.10;99.90;;;;;;5119128;27;20031;-62
2022/07/18 11:51:16;;;;;;;3.45;1.95;;;31.10;99.90;;;;;;5102989;28;20032;-64
2022/07/18 11:53:49;;;;;;;4.20;2.33;;;31.10;99.90;;;;;;5112542;27;20027;-60
2022/07/18 11:56:16;;;;;;;5.28;3.08;;;31.10;99.90;;;;;;5132772;27;20011;-62
2022/07/18 11:58:44;;;;;;;5.05;2.00;;;31.20;99.90;;;;;;5114409;27;20023;-63
2022/07/18 12:01:11;;;;;;;3.33;2.03;;;31.20;99.90;;;;;;5114420;27;20237;-60
2022/07/18 12:03:40;;;;;;;3.47;2.33;;;31.20;99.90;;;;;;5113991;27;20134;-62
2022/07/18 12:06:21;;;;;;;4.28;1.70;;;31.20;99.90;;;;;;5132611;27;20316;-60
2022/07/18 12:08:51;;;;;;;4.22;2.55;;;31.20;99.90;;;;;;5132836;27;20033;-63
2022/07/18 12:11:38;;;;;;;2.13;1.83;;;31.20;99.90;;;;;;5113088;27;20035;-63
2022/07/18 12:14:06;;;;;;;5.28;2.80;;;31.20;99.90;;;;;;5122342;27;20071;-62
2022/07/18 12:16:42;;;;;;;3.60;2.10;;;31.30;99.90;;;;;;5114034;27;20039;-62
2022/07/18 12:19:15;;;;;;;4.38;2.83;;;31.30;99.90;;;;;;5132547;27;20019;-62
2022/07/18 12:21:59;;;;;;;3.45;1.88;;;31.40;99.90;;;;;;5113954;27;20079;-59
2022/07/18 12:24:38;;;;;;;5.43;4.00;;;31.40;99.90;;;;;;5120054;27;20490;-62
2022/07/18 12:27:12;;;;;;;4.00;2.60;;;31.40;99.90;;;;;;5132529;27;20011;-61
2022/07/18 12:30:04;;;;;;;2.72;1.85;;;31.40;99.90;;;;;;5124214;27;20038;-62
2022/07/18 12:32:51;;;;;;;5.55;2.58;;;31.40;99.90;;;;;;5130043;27;20084;-60
2022/07/18 12:35:31;;;;;;;2.33;1.70;;;31.50;99.90;;;;;;5132398;27;20027;-60
2022/07/18 12:38:01;;;;;;;2.10;1.90;;;31.50;99.90;;;;;;5131838;27;20023;-62
2022/07/18 12:40:52;;;;;;;2.03;1.58;;;31.50;99.90;;;;;;5132141;27;20027;-62
2022/07/18 12:43:36;;;;;;;2.97;1.55;;;31.50;99.90;;;;;;5132333;27;20027;-62
2022/07/18 12:46:10;;;;;;;3.05;1.52;;;31.50;99.90;;;;;;5131882;27;20034;-60
2022/07/18 12:48:36;;;;;;;4.07;1.80;;;31.50;99.90;;;;;;5132089;27;20027;-61
2022/07/18 12:51:07;;;;;;;4.35;1.50;;;31.50;99.90;;;;;;5131967;27;20488;-62
2022/07/18 12:53:37;;;;;;;6.00;1.65;;;31.50;99.90;;;;;;5113527;27;20480;-63
2022/07/18 12:56:04;;;;;;;4.30;1.98;;;31.60;99.90;;;;;;5121984;27;20027;-61
2022/07/18 12:58:29;;;;;;;26.73;3.80;;;31.60;99.90;;;;;;5131260;27;20409;-59